createdAt,value
2019-05-15T00:01:41.135Z,38.92
2019-05-15T00:04:10.893Z,38.96
2019-05-15T00:06:40.790Z,38.99
2019-05-15T00:09:10.412Z,38.99
2019-05-15T00:11:40.138Z,38.99
2019-05-15T00:14:09.746Z,38.87
2019-05-15T00:16:39.443Z,38.97
2019-05-15T00:19:10.141Z,38.99
2019-05-15T00:21:39.728Z,39.00
2019-05-15T00:24:13.163Z,39.01
2019-05-15T00:26:40.881Z,38.94
2019-05-15T00:29:15.857Z,38.92
2019-05-15T00:31:41.786Z,38.88
2019-05-15T00:34:12.842Z,39.01
2019-05-15T00:36:42.821Z,38.99
2019-05-15T00:39:12.719Z,38.97
2019-05-15T00:41:51.498Z,38.95
2019-05-15T00:44:14.266Z,38.89
2019-05-15T00:46:43.806Z,38.95
2019-05-15T00:49:13.365Z,38.61
2019-05-15T00:51:43.267Z,38.82
2019-05-15T00:54:12.929Z,38.70
2019-05-15T00:56:42.470Z,38.82
2019-05-15T00:59:23.188Z,38.91
2019-05-15T01:01:43.265Z,38.72
2019-05-15T01:04:12.819Z,38.81
2019-05-15T01:06:42.682Z,38.76
2019-05-15T01:09:12.231Z,38.78
2019-05-15T01:11:41.761Z,38.83
2019-05-15T01:14:12.132Z,38.72
2019-05-15T01:16:41.896Z,38.81
2019-05-15T01:19:11.430Z,38.84
2019-05-15T01:21:41.003Z,38.70
2019-05-15T01:24:10.628Z,38.75
2019-05-15T01:26:40.463Z,38.80
2019-05-15T01:29:10.011Z,38.67
2019-05-15T01:31:39.592Z,38.81
2019-05-15T01:34:09.161Z,38.75
2019-05-15T01:36:38.674Z,38.79
2019-05-15T01:39:08.228Z,38.86
2019-05-15T01:41:38.618Z,38.76
2019-05-15T01:44:08.821Z,38.70
2019-05-15T01:46:39.462Z,38.69
2019-05-15T01:49:09.084Z,38.78
2019-05-15T01:51:38.747Z,38.66
2019-05-15T01:54:09.131Z,38.83
2019-05-15T01:56:39.421Z,38.76
2019-05-15T01:59:08.965Z,38.79
2019-05-15T02:01:39.159Z,38.71
2019-05-15T02:04:09.047Z,38.83
2019-05-15T02:06:39.111Z,38.84
2019-05-15T02:09:09.311Z,38.73
2019-05-15T02:11:38.935Z,38.74
2019-05-15T02:14:09.163Z,38.83
2019-05-15T02:16:39.394Z,38.88
2019-05-15T02:19:09.164Z,38.94
2019-05-15T02:21:38.629Z,38.96
2019-05-15T02:24:08.499Z,38.94
2019-05-15T02:26:38.885Z,38.99
2019-05-15T02:29:13.163Z,39.03
2019-05-15T02:31:39.834Z,39.09
2019-05-15T02:34:10.378Z,39.00
2019-05-15T02:36:40.448Z,39.08
2019-05-15T02:39:10.008Z,39.00
2019-05-15T02:41:40.001Z,39.08
2019-05-15T02:44:10.977Z,38.97
2019-05-15T02:46:40.781Z,39.01
2019-05-15T02:49:10.310Z,38.96
2019-05-15T02:51:40.204Z,39.05
2019-05-15T02:54:10.429Z,38.97
2019-05-15T02:56:40.306Z,38.99
2019-05-15T02:59:09.878Z,38.97
2019-05-15T03:01:40.482Z,38.92
2019-05-15T03:04:10.670Z,39.01
2019-05-15T03:06:40.478Z,39.00
2019-05-15T03:09:10.389Z,38.90
2019-05-15T03:11:41.080Z,38.99
2019-05-15T03:14:10.793Z,39.00
2019-05-15T03:16:40.372Z,38.73
2019-05-15T03:19:10.236Z,38.79
2019-05-15T03:21:39.860Z,38.95
2019-05-15T03:24:10.422Z,38.91
2019-05-15T03:26:40.064Z,38.92
2019-05-15T03:29:09.980Z,38.81
2019-05-15T03:31:52.880Z,38.68
2019-05-15T03:34:20.372Z,38.32
2019-05-15T03:36:45.429Z,38.15
2019-05-15T03:39:13.683Z,38.34
2019-05-15T03:41:43.262Z,38.39
2019-05-15T03:44:12.820Z,38.12
2019-05-15T03:46:42.359Z,38.43
2019-05-15T03:49:12.169Z,38.55
2019-05-15T03:51:45.673Z,38.34
2019-05-15T03:54:13.005Z,38.17
2019-05-15T03:56:42.575Z,38.14
2019-05-15T03:59:12.137Z,38.48
2019-05-15T04:01:43.835Z,38.40
2019-05-15T04:04:13.222Z,38.42
2019-05-15T04:06:43.113Z,38.46
2019-05-15T04:09:12.671Z,38.48
2019-05-15T04:11:42.243Z,38.52
2019-05-15T04:14:11.786Z,38.49
2019-05-15T04:16:41.325Z,38.47
2019-05-15T04:19:10.865Z,38.40
2019-05-15T04:21:44.628Z,38.52
2019-05-15T04:24:12.462Z,38.63
2019-05-15T04:26:42.039Z,38.77
2019-05-15T04:29:11.586Z,38.45
2019-05-15T04:31:55.744Z,38.35
2019-05-15T04:34:12.427Z,38.58
2019-05-15T04:36:44.593Z,38.53
2019-05-15T04:39:13.252Z,38.57
2019-05-15T04:41:42.803Z,38.75
2019-05-15T04:44:12.370Z,38.73
2019-05-15T04:46:41.910Z,38.70
2019-05-15T04:49:11.470Z,38.58
2019-05-15T04:51:41.042Z,38.65
2019-05-15T04:54:10.610Z,38.72
2019-05-15T04:56:40.324Z,38.69
2019-05-15T04:59:10.466Z,38.16
2019-05-15T05:01:40.573Z,38.54
2019-05-15T05:04:10.160Z,38.64
2019-05-15T05:06:39.845Z,38.61
2019-05-15T05:09:09.523Z,38.16
2019-05-15T05:11:39.033Z,38.57
2019-05-15T05:14:08.874Z,38.21
2019-05-15T05:16:39.226Z,38.23
2019-05-15T05:19:09.228Z,38.00
2019-05-15T05:21:38.788Z,38.40
2019-05-15T05:24:08.347Z,38.78
2019-05-15T05:26:38.416Z,38.75
2019-05-15T05:29:08.470Z,38.69
2019-05-15T05:31:39.054Z,38.69
2019-05-15T05:34:09.127Z,38.53
2019-05-15T05:36:38.829Z,38.37
2019-05-15T05:39:09.601Z,38.51
2019-05-15T05:41:40.151Z,40.16
2019-05-15T05:44:09.761Z,39.75
2019-05-15T05:46:39.950Z,40.33
2019-05-15T05:49:09.737Z,40.64
2019-05-15T05:51:39.305Z,40.53
2019-05-15T05:54:08.877Z,39.93
2019-05-15T05:56:38.432Z,39.93
2019-05-15T05:59:09.370Z,39.82
2019-05-15T06:01:43.898Z,39.67
2019-05-15T06:04:10.349Z,39.31
2019-05-15T06:06:39.918Z,39.16
2019-05-15T06:09:09.473Z,38.79
2019-05-15T06:11:39.013Z,38.73
2019-05-15T06:14:08.842Z,38.88
2019-05-15T06:16:38.942Z,38.88
2019-05-15T06:19:08.801Z,38.36
2019-05-15T06:21:53.417Z,38.54
2019-05-15T06:24:13.155Z,38.46
2019-05-15T06:26:40.874Z,38.13
2019-05-15T06:29:10.449Z,37.97
2019-05-15T06:31:40.282Z,38.24
2019-05-15T06:34:09.832Z,38.09
2019-05-15T06:36:39.498Z,37.92
2019-05-15T06:39:09.108Z,37.70
2019-05-15T06:41:39.159Z,37.54
2019-05-15T06:44:09.114Z,37.36
2019-05-15T06:46:39.245Z,37.17
2019-05-15T06:49:08.987Z,37.10
2019-05-15T06:51:38.856Z,36.98
2019-05-15T06:54:08.858Z,36.95
2019-05-15T06:56:39.107Z,36.79
2019-05-15T06:59:09.041Z,36.62
2019-05-15T07:01:38.784Z,36.72
2019-05-15T07:04:08.574Z,36.69
2019-05-15T07:06:38.526Z,36.52
2019-05-15T07:09:09.486Z,36.42
2019-05-15T07:11:39.202Z,36.25
2019-05-15T07:14:09.050Z,36.25
2019-05-15T07:16:39.166Z,36.08
2019-05-15T07:19:08.794Z,36.14
2019-05-15T07:21:38.954Z,35.80
2019-05-15T07:24:09.420Z,35.36
2019-05-15T07:26:39.356Z,35.28
2019-05-15T07:29:09.385Z,35.18
2019-05-15T07:31:39.009Z,35.06
2019-05-15T07:34:09.051Z,34.83
2019-05-15T07:36:39.204Z,34.84
2019-05-15T07:39:10.375Z,34.73
2019-05-15T07:41:39.920Z,34.45
2019-05-15T07:44:09.477Z,34.18
2019-05-15T07:46:39.054Z,33.69
2019-05-15T07:49:09.181Z,33.35
2019-05-15T07:51:38.869Z,33.29
2019-05-15T07:54:09.335Z,33.20
2019-05-15T07:56:38.980Z,33.46
2019-05-15T07:59:08.897Z,33.08
2019-05-15T08:01:38.777Z,32.92
2019-05-15T08:04:25.087Z,32.94
2019-05-15T08:06:39.683Z,33.13
2019-05-15T08:09:09.591Z,33.10
2019-05-15T08:11:39.378Z,33.36
2019-05-15T08:14:09.208Z,33.67
2019-05-15T08:16:39.573Z,33.47
2019-05-15T08:19:09.671Z,33.90
2019-05-15T08:21:39.589Z,33.62
2019-05-15T08:24:09.488Z,33.64
2019-05-15T08:26:44.871Z,33.96
2019-05-15T08:29:10.545Z,34.13
2019-05-15T08:31:40.489Z,34.23
2019-05-15T08:34:15.582Z,33.84
2019-05-15T08:36:41.336Z,33.63
2019-05-15T08:39:10.867Z,32.49
2019-05-15T08:41:40.410Z,32.94
2019-05-15T08:44:09.951Z,32.53
2019-05-15T08:46:39.491Z,32.67
2019-05-15T08:49:09.439Z,32.74
2019-05-15T08:51:39.583Z,33.12
2019-05-15T08:54:09.174Z,33.45
2019-05-15T08:56:39.525Z,33.19
2019-05-15T08:59:09.677Z,32.71
2019-05-15T09:01:39.263Z,33.28
2019-05-15T09:04:09.266Z,32.65
2019-05-15T09:06:41.436Z,33.15
2019-05-15T09:09:10.168Z,32.98
2019-05-15T09:11:39.807Z,33.23
2019-05-15T09:14:09.350Z,33.14
2019-05-15T09:16:38.996Z,32.67
2019-05-15T09:19:08.572Z,32.59
2019-05-15T09:21:38.721Z,31.54
2019-05-15T09:24:09.459Z,32.31
2019-05-15T09:26:40.414Z,31.69
2019-05-15T09:29:10.303Z,31.71
2019-05-15T09:31:39.818Z,31.79
2019-05-15T09:34:09.467Z,31.64
2019-05-15T09:36:42.288Z,31.53
2019-05-15T09:39:13.317Z,31.56
2019-05-15T09:41:42.487Z,31.98
2019-05-15T09:44:12.057Z,31.99
2019-05-15T09:46:41.650Z,31.66
2019-05-15T09:49:11.207Z,31.65
2019-05-15T09:51:40.803Z,31.61
2019-05-15T09:54:10.577Z,31.15
2019-05-15T09:56:40.172Z,31.12
2019-05-15T09:59:09.750Z,31.52
2019-05-15T10:01:39.661Z,31.37
2019-05-15T10:04:09.506Z,31.40
2019-05-15T10:06:39.267Z,31.49
2019-05-15T10:09:09.149Z,31.52
2019-05-15T10:11:39.144Z,31.60
2019-05-15T10:14:09.761Z,31.80
2019-05-15T10:16:39.571Z,31.94
2019-05-15T10:19:09.165Z,31.54
2019-05-15T10:21:40.015Z,31.79
2019-05-15T10:24:09.827Z,31.79
2019-05-15T10:26:39.876Z,31.60
2019-05-15T10:29:09.503Z,31.52
2019-05-15T10:31:39.133Z,31.73
2019-05-15T10:34:09.276Z,31.78
2019-05-15T10:36:39.005Z,31.74
2019-05-15T10:39:09.004Z,32.25
2019-05-15T10:41:38.946Z,32.15
2019-05-15T10:44:09.354Z,32.20
2019-05-15T10:46:39.082Z,32.12
2019-05-15T10:49:08.913Z,32.54
2019-05-15T10:51:39.531Z,32.27
2019-05-15T10:54:09.475Z,32.28
2019-05-15T10:56:39.042Z,31.65
2019-05-15T10:59:08.706Z,31.63
2019-05-15T11:01:38.904Z,31.66
2019-05-15T11:04:09.090Z,31.15
2019-05-15T11:06:39.037Z,31.47
2019-05-15T11:09:08.927Z,31.67
2019-05-15T11:11:38.544Z,31.81
2019-05-15T11:14:09.209Z,31.90
2019-05-15T11:16:39.254Z,32.40
2019-05-15T11:19:09.195Z,33.06
2019-05-15T11:21:38.857Z,33.45
2019-05-15T11:24:08.834Z,34.02
2019-05-15T11:26:39.194Z,34.32
2019-05-15T11:29:09.822Z,34.00
2019-05-15T11:31:39.517Z,34.06
2019-05-15T11:34:09.429Z,33.73
2019-05-15T11:36:39.195Z,33.39
2019-05-15T11:39:08.832Z,32.98
2019-05-15T11:41:38.874Z,33.03
2019-05-15T11:44:08.476Z,32.88
2019-05-15T11:46:39.279Z,32.75
2019-05-15T11:49:09.564Z,32.57
2019-05-15T11:51:39.162Z,32.20
2019-05-15T11:54:09.051Z,31.97
2019-05-15T11:56:39.409Z,31.93
2019-05-15T11:59:09.391Z,31.52
2019-05-15T12:01:39.305Z,31.29
2019-05-15T12:04:09.432Z,31.38
2019-05-15T12:06:39.119Z,31.46
2019-05-15T12:09:09.242Z,31.46
2019-05-15T12:11:41.141Z,31.73
2019-05-15T12:14:11.266Z,31.93
2019-05-15T12:16:40.883Z,32.01
2019-05-15T12:19:17.026Z,31.92
2019-05-15T12:21:41.823Z,31.98
2019-05-15T12:24:11.785Z,32.11
2019-05-15T12:26:41.351Z,32.01
2019-05-15T12:29:10.912Z,32.00
2019-05-15T12:31:40.461Z,32.07
2019-05-15T12:34:10.073Z,31.68
2019-05-15T12:36:51.732Z,31.61
2019-05-15T12:39:13.825Z,31.41
2019-05-15T13:01:52.876Z,31.06
2019-05-15T13:04:22.434Z,30.85
2019-05-15T13:07:11.696Z,30.17
2019-05-15T13:09:23.602Z,29.68
2019-05-15T13:11:53.202Z,29.48
2019-05-15T13:14:22.746Z,29.03
2019-05-15T13:16:52.300Z,29.45
2019-05-15T13:19:21.850Z,29.56
2019-05-15T13:21:51.666Z,29.37
2019-05-15T13:24:21.263Z,29.28
2019-05-15T13:26:50.736Z,29.12
2019-05-15T13:29:20.333Z,29.02
2019-05-15T13:31:50.128Z,28.79
2019-05-15T13:34:19.904Z,28.22
2019-05-15T13:36:49.827Z,28.26
2019-05-15T13:39:19.298Z,27.92
2019-05-15T13:41:48.875Z,27.58
2019-05-15T13:44:18.848Z,27.39
2019-05-15T13:46:48.411Z,27.39
2019-05-15T13:49:18.754Z,27.31
2019-05-15T13:51:48.984Z,27.10
2019-05-15T13:54:18.932Z,27.00
2019-05-15T13:56:48.877Z,27.18
2019-05-15T13:59:18.586Z,27.20
2019-05-15T14:01:48.764Z,27.40
2019-05-15T14:04:18.588Z,27.68
2019-05-15T14:06:48.812Z,27.79
2019-05-15T14:09:20.329Z,27.98
2019-05-15T14:11:49.928Z,28.42
2019-05-15T14:14:19.557Z,28.70
2019-05-15T14:16:49.279Z,28.76
2019-05-15T14:19:18.981Z,28.97
2019-05-15T14:21:49.010Z,28.55
2019-05-15T14:24:18.926Z,28.40
2019-05-15T14:26:48.708Z,28.51
2019-05-15T14:29:19.085Z,28.34
2019-05-15T14:31:48.999Z,28.26
2019-05-15T14:34:18.803Z,28.35
2019-05-15T14:36:48.818Z,28.16
2019-05-15T14:39:20.811Z,28.24
2019-05-15T14:41:49.822Z,28.31
2019-05-15T14:44:21.749Z,28.14
2019-05-15T14:46:51.569Z,28.23
2019-05-15T14:49:21.472Z,28.23
2019-05-15T14:52:04.637Z,28.35
2019-05-15T14:54:22.565Z,28.25
2019-05-15T14:56:52.208Z,27.68
2019-05-15T14:59:21.824Z,27.15
2019-05-15T15:01:51.403Z,27.58
2019-05-15T15:04:21.128Z,27.35
2019-05-15T15:06:50.684Z,27.46
2019-05-15T15:09:20.258Z,27.42
2019-05-15T15:11:49.893Z,27.37
2019-05-15T15:14:19.536Z,27.19
2019-05-15T15:16:49.090Z,27.25
2019-05-15T15:19:18.739Z,27.05
2019-05-15T15:21:48.780Z,27.50
2019-05-15T15:24:18.888Z,27.49
2019-05-15T15:26:49.373Z,27.74
2019-05-15T15:29:19.268Z,27.99
2019-05-15T15:31:49.614Z,27.99
2019-05-15T15:34:19.777Z,28.20
2019-05-15T15:36:49.494Z,28.21
2019-05-15T15:39:19.061Z,28.09
2019-05-15T15:41:48.719Z,28.28
2019-05-15T15:44:18.289Z,28.04
2019-05-15T15:46:48.670Z,27.92
2019-05-15T15:49:18.247Z,28.03
2019-05-15T15:51:48.743Z,28.05
2019-05-15T15:54:22.621Z,28.27
2019-05-15T15:56:52.188Z,28.36
2019-05-15T15:59:21.744Z,28.56
2019-05-15T16:01:51.461Z,28.24
2019-05-15T16:04:21.369Z,28.33
2019-05-15T16:06:50.908Z,28.71
2019-05-15T16:09:22.570Z,28.53
2019-05-15T16:11:52.214Z,28.65
2019-05-15T16:14:21.767Z,28.59
2019-05-15T16:16:51.360Z,28.76
2019-05-15T16:19:20.949Z,28.80
2019-05-15T16:21:50.875Z,28.94
2019-05-15T16:24:21.901Z,29.04
2019-05-15T16:26:51.541Z,29.27
2019-05-15T16:29:21.118Z,29.38
2019-05-15T16:31:51.101Z,29.31
2019-05-15T16:34:20.657Z,29.70
2019-05-15T16:36:50.322Z,29.91
2019-05-15T16:39:20.573Z,30.19
2019-05-15T16:41:50.179Z,30.40
2019-05-15T16:44:19.967Z,30.53
2019-05-15T16:46:49.545Z,30.52
2019-05-15T16:49:19.334Z,30.64
2019-05-15T16:51:49.333Z,30.77
2019-05-15T16:54:18.976Z,30.74
2019-05-15T16:56:49.103Z,30.82
2019-05-15T16:59:19.203Z,30.75
2019-05-15T17:01:49.114Z,30.81
2019-05-15T17:04:18.907Z,30.89
2019-05-15T17:06:49.360Z,30.86
2019-05-15T17:09:21.702Z,30.80
2019-05-15T17:11:50.656Z,30.61
2019-05-15T17:14:21.349Z,30.55
2019-05-15T17:16:50.935Z,30.87
2019-05-15T17:19:20.562Z,30.85
2019-05-15T17:21:50.489Z,30.60
2019-05-15T17:24:20.083Z,30.93
2019-05-15T17:26:49.628Z,31.12
2019-05-15T17:29:19.418Z,31.25
2019-05-15T17:31:49.027Z,31.61
2019-05-15T17:34:18.876Z,31.12
2019-05-15T17:36:49.067Z,31.06
2019-05-15T17:39:33.455Z,31.04
2019-05-15T17:41:50.508Z,30.86
2019-05-15T17:44:20.419Z,30.89
2019-05-15T17:46:49.996Z,30.81
2019-05-15T17:49:19.607Z,30.71
2019-05-15T17:51:49.194Z,30.60
2019-05-15T17:54:19.048Z,30.50
2019-05-15T17:56:49.075Z,30.63
2019-05-15T17:59:19.085Z,30.80
2019-05-15T18:01:49.259Z,30.91
2019-05-15T18:04:19.183Z,30.81
2019-05-15T18:06:48.789Z,30.61
2019-05-15T18:09:18.928Z,30.94
2019-05-15T18:11:48.647Z,30.92
2019-05-15T18:14:18.265Z,30.93
2019-05-15T18:16:50.734Z,30.84
2019-05-15T18:19:19.557Z,30.71
2019-05-15T18:21:49.803Z,30.52
2019-05-15T18:24:19.538Z,30.26
2019-05-15T18:26:49.214Z,30.16
2019-05-15T18:29:18.810Z,30.23
2019-05-15T18:31:49.368Z,30.30
2019-05-15T18:34:19.013Z,30.38
2019-05-15T18:36:48.683Z,29.90
2019-05-15T18:39:18.224Z,29.98
2019-05-15T18:41:48.504Z,29.86
2019-05-15T18:44:18.877Z,29.87
2019-05-15T18:46:48.858Z,29.80
2019-05-15T18:49:18.502Z,29.77
2019-05-15T18:51:48.115Z,29.70
2019-05-15T18:54:19.007Z,29.72
2019-05-15T18:56:49.208Z,30.00
2019-05-15T18:59:18.872Z,29.97
2019-05-15T19:01:49.097Z,29.94
2019-05-15T19:04:18.728Z,30.00
2019-05-15T19:06:48.766Z,30.10
2019-05-15T19:09:18.893Z,29.88
2019-05-15T19:11:48.942Z,29.85
2019-05-15T19:14:19.385Z,29.75
2019-05-15T19:16:49.304Z,29.73
2019-05-15T19:19:19.130Z,29.77
2019-05-15T19:21:48.988Z,29.60
2019-05-15T19:24:18.717Z,29.55
2019-05-15T19:26:48.383Z,29.19
2019-05-15T19:29:18.366Z,29.24
2019-05-15T19:31:48.018Z,29.24
2019-05-15T19:34:18.976Z,29.20
2019-05-15T19:36:48.867Z,29.12
2019-05-15T19:39:18.878Z,29.22
2019-05-15T19:41:48.528Z,29.39
2019-05-15T19:44:19.155Z,29.46
2019-05-15T19:46:48.748Z,29.56
2019-05-15T19:49:18.338Z,29.66
2019-05-15T19:51:48.668Z,29.79
2019-05-15T19:54:18.708Z,29.89
2019-05-15T19:56:48.330Z,29.81
2019-05-15T19:59:22.512Z,29.79
2019-05-15T20:01:49.216Z,29.90
2019-05-15T20:04:19.442Z,29.93
2019-05-15T20:06:50.173Z,29.96
2019-05-15T20:09:20.388Z,30.08
2019-05-15T20:11:50.230Z,30.02
2019-05-15T20:14:19.784Z,30.13
2019-05-15T20:16:49.351Z,30.17
2019-05-15T20:19:19.655Z,30.30
2019-05-15T20:21:49.240Z,30.31
2019-05-15T20:24:19.108Z,30.27
2019-05-15T20:26:48.770Z,30.30
2019-05-15T20:29:18.345Z,30.38
2019-05-15T20:31:48.384Z,30.47
2019-05-15T20:34:18.111Z,30.46
2019-05-15T20:36:48.809Z,30.58
2019-05-15T20:39:18.613Z,30.59
2019-05-15T20:41:48.741Z,30.67
2019-05-15T20:44:18.431Z,30.70
2019-05-15T20:46:50.632Z,30.76
2019-05-15T20:49:19.471Z,30.78
2019-05-15T20:51:49.796Z,30.80
2019-05-15T20:54:19.364Z,30.84
2019-05-15T20:56:49.101Z,30.88
2019-05-15T20:59:19.191Z,30.95
2019-05-15T21:01:50.808Z,30.99
2019-05-15T21:04:23.444Z,31.04
2019-05-15T21:06:51.258Z,31.06
2019-05-15T21:09:22.330Z,31.14
2019-05-15T21:11:51.967Z,31.17
2019-05-15T21:14:21.874Z,31.17
2019-05-15T21:16:51.461Z,31.21
2019-05-15T21:19:21.013Z,31.23
2019-05-15T21:21:50.582Z,31.22
2019-05-15T21:24:20.225Z,31.28
2019-05-15T21:26:49.775Z,31.25
2019-05-15T21:29:19.729Z,31.28
2019-05-15T21:31:49.359Z,31.21
2019-05-15T21:34:33.431Z,31.35
2019-05-15T21:36:52.166Z,31.30
2019-05-15T21:39:21.956Z,31.25
2019-05-15T21:41:51.609Z,31.27
2019-05-15T21:44:21.167Z,31.31
2019-05-15T21:46:50.727Z,31.27
2019-05-15T21:49:20.691Z,31.31
2019-05-15T21:51:50.245Z,31.36
2019-05-15T21:54:20.905Z,31.31
2019-05-15T21:56:50.623Z,31.33
2019-05-15T21:59:20.177Z,31.42
2019-05-15T22:01:50.074Z,31.41
2019-05-15T22:04:19.619Z,31.35
2019-05-15T22:06:49.283Z,31.38
2019-05-15T22:09:20.535Z,31.51
2019-05-15T22:11:50.261Z,31.51
2019-05-15T22:14:19.817Z,31.60
2019-05-15T22:16:49.352Z,31.56
2019-05-15T22:19:20.773Z,31.64
2019-05-15T22:21:50.746Z,31.54
2019-05-15T22:24:20.269Z,31.56
2019-05-15T22:26:50.192Z,31.64
2019-05-15T22:29:20.888Z,31.70
2019-05-15T22:31:50.477Z,31.79
2019-05-15T22:34:20.037Z,31.83
2019-05-15T22:36:50.964Z,31.89
2019-05-15T22:39:20.952Z,31.85
2019-05-15T22:41:50.531Z,31.83
2019-05-15T22:44:20.090Z,31.87
2019-05-15T22:46:50.279Z,31.92
2019-05-15T22:49:19.824Z,31.99
2019-05-15T22:51:49.384Z,32.05
2019-05-15T22:54:20.549Z,32.06
2019-05-15T22:56:50.623Z,32.04
2019-05-15T22:59:20.944Z,32.04
2019-05-15T23:01:50.484Z,32.16
2019-05-15T23:04:20.045Z,32.18
2019-05-15T23:06:49.595Z,32.16
2019-05-15T23:09:19.293Z,32.20
2019-05-15T23:11:48.830Z,32.23
2019-05-15T23:14:18.384Z,32.19
2019-05-15T23:16:48.414Z,32.34
2019-05-15T23:19:18.745Z,32.32
2019-05-15T23:21:48.743Z,32.39
2019-05-15T23:24:18.969Z,32.41
2019-05-15T23:26:48.551Z,32.43
2019-05-15T23:29:18.107Z,32.51
2019-05-15T23:31:47.654Z,32.52
2019-05-15T23:34:18.734Z,32.43
2019-05-15T23:36:48.426Z,32.52
2019-05-15T23:39:18.376Z,32.52
2019-05-15T23:41:48.042Z,32.67
2019-05-15T23:44:18.400Z,32.64
2019-05-15T23:46:48.736Z,32.69
2019-05-15T23:49:19.863Z,32.69
2019-05-15T23:51:49.526Z,32.57
2019-05-15T23:54:38.563Z,32.80
2019-05-15T23:57:28.702Z,32.77
2019-05-15T23:59:57.634Z,32.86
